createdAt,value
2017-09-08T00:00:28.967Z,12.00
2017-09-08T00:02:55.305Z,12.00
2017-09-08T00:05:21.662Z,12.00
2017-09-08T00:07:47.875Z,12.00
2017-09-08T00:10:14.200Z,12.20
2017-09-08T00:12:40.518Z,12.30
2017-09-08T00:15:06.920Z,12.30
2017-09-08T00:17:33.323Z,12.30
2017-09-08T00:19:59.611Z,12.30
2017-09-08T00:22:25.861Z,12.30
2017-09-08T00:24:52.078Z,12.30
2017-09-08T00:27:18.451Z,12.20
2017-09-08T00:29:44.702Z,12.20
2017-09-08T00:32:11.086Z,12.10
2017-09-08T00:34:37.382Z,12.10
2017-09-08T00:37:04.482Z,12.40
2017-09-08T00:39:30.887Z,12.30
2017-09-08T00:41:57.253Z,12.40
2017-09-08T00:44:23.600Z,12.30
2017-09-08T00:46:50.001Z,12.10
2017-09-08T00:49:16.329Z,12.00
2017-09-08T00:51:42.729Z,12.20
2017-09-08T00:54:09.769Z,12.20
2017-09-08T00:56:36.170Z,12.20
2017-09-08T00:59:02.492Z,12.10
2017-09-08T01:01:28.835Z,12.10
2017-09-08T01:03:55.158Z,12.10
2017-09-08T01:06:21.479Z,12.10
2017-09-08T01:08:47.791Z,12.10
2017-09-08T01:11:14.094Z,12.10
2017-09-08T01:13:41.196Z,12.20
2017-09-08T01:16:07.484Z,12.20
2017-09-08T01:18:34.657Z,12.20
2017-09-08T01:21:00.908Z,12.40
2017-09-08T01:23:27.187Z,12.50
2017-09-08T01:25:53.558Z,12.60
2017-09-08T01:28:19.827Z,12.60
2017-09-08T01:30:46.187Z,12.50
2017-09-08T01:33:12.453Z,12.50
2017-09-08T01:35:38.807Z,12.30
2017-09-08T01:38:05.128Z,12.20
2017-09-08T01:40:31.464Z,12.10
2017-09-08T01:42:57.830Z,12.00
2017-09-08T01:45:24.864Z,12.20
2017-09-08T01:47:51.203Z,12.10
2017-09-08T01:50:18.307Z,12.30
2017-09-08T01:52:44.746Z,12.20
2017-09-08T01:55:11.074Z,12.20
2017-09-08T01:57:37.365Z,12.20
2017-09-08T02:00:03.742Z,12.30
2017-09-08T02:02:30.121Z,12.40
2017-09-08T02:04:57.222Z,12.50
2017-09-08T02:07:23.569Z,12.50
2017-09-08T02:09:49.884Z,12.50
2017-09-08T02:12:16.187Z,12.50
2017-09-08T02:14:42.603Z,12.50
2017-09-08T02:17:08.879Z,12.50
2017-09-08T02:19:35.094Z,12.60
2017-09-08T02:22:07.442Z,12.50
2017-09-08T02:24:35.746Z,12.60
2017-09-08T02:27:02.123Z,12.50
2017-09-08T02:29:28.586Z,12.60
2017-09-08T02:31:54.847Z,12.60
2017-09-08T02:34:21.104Z,12.50
2017-09-08T02:36:47.371Z,12.50
2017-09-08T02:39:13.695Z,12.50
2017-09-08T02:41:40.017Z,12.40
2017-09-08T02:44:06.328Z,12.40
2017-09-08T02:46:32.800Z,12.40
2017-09-08T02:48:59.817Z,12.50
2017-09-08T02:51:26.149Z,12.50
2017-09-08T02:53:52.522Z,12.70
2017-09-08T02:56:18.731Z,12.80
2017-09-08T02:58:44.968Z,12.80
2017-09-08T03:01:11.248Z,12.70
2017-09-08T03:03:37.505Z,12.70
2017-09-08T03:06:03.778Z,12.60
2017-09-08T03:08:30.022Z,12.60
2017-09-08T03:10:56.263Z,12.60
2017-09-08T03:13:22.522Z,12.70
2017-09-08T03:15:48.854Z,12.70
2017-09-08T03:18:16.004Z,12.70
2017-09-08T03:20:42.273Z,12.70
2017-09-08T03:23:08.598Z,12.70
2017-09-08T03:25:34.868Z,12.70
2017-09-08T03:28:01.170Z,12.60
2017-09-08T03:30:27.430Z,12.60
2017-09-08T03:32:53.750Z,12.50
2017-09-08T03:35:20.045Z,12.40
2017-09-08T03:37:46.255Z,12.30
2017-09-08T03:40:12.592Z,12.20
2017-09-08T03:42:38.949Z,12.10
2017-09-08T03:45:05.300Z,12.10
2017-09-08T03:47:31.560Z,12.10
2017-09-08T03:49:57.900Z,12.10
2017-09-08T03:52:24.250Z,11.90
2017-09-08T03:54:50.583Z,11.90
2017-09-08T03:57:17.677Z,11.80
2017-09-08T03:59:44.034Z,11.80
2017-09-08T04:02:10.393Z,11.90
2017-09-08T04:04:36.786Z,11.90
2017-09-08T04:07:03.174Z,12.00
2017-09-08T04:09:30.263Z,11.90
2017-09-08T04:11:56.568Z,11.90
2017-09-08T04:14:23.009Z,12.10
2017-09-08T04:16:49.340Z,12.10
2017-09-08T04:19:15.676Z,12.20
2017-09-08T04:21:42.052Z,12.30
2017-09-08T04:24:08.349Z,12.20
2017-09-08T04:26:34.814Z,12.20
2017-09-08T04:29:01.117Z,12.20
2017-09-08T04:31:27.447Z,12.20
2017-09-08T04:33:53.791Z,12.20
2017-09-08T04:36:20.239Z,12.30
2017-09-08T04:38:46.577Z,12.20
2017-09-08T04:41:12.898Z,12.20
2017-09-08T04:43:39.151Z,12.20
2017-09-08T04:46:05.448Z,12.20
2017-09-08T04:48:31.769Z,12.20
2017-09-08T04:50:58.033Z,12.20
2017-09-08T04:53:24.470Z,12.30
2017-09-08T04:55:50.761Z,12.30
2017-09-08T04:58:17.135Z,12.30
2017-09-08T05:00:43.473Z,12.30
2017-09-08T05:03:09.711Z,12.40
2017-09-08T05:05:36.164Z,12.40
2017-09-08T05:08:03.330Z,12.40
2017-09-08T05:10:29.676Z,12.40
2017-09-08T05:12:56.046Z,12.40
2017-09-08T05:15:22.368Z,12.40
2017-09-08T05:17:48.689Z,12.40
2017-09-08T05:20:14.999Z,12.40
2017-09-08T05:22:41.310Z,12.50
2017-09-08T05:25:07.690Z,12.50
2017-09-08T05:27:34.585Z,12.50
2017-09-08T05:30:00.911Z,12.60
2017-09-08T05:32:27.211Z,12.60
2017-09-08T05:34:53.562Z,12.60
2017-09-08T05:37:19.959Z,12.70
2017-09-08T05:39:46.294Z,12.70
2017-09-08T05:42:12.625Z,12.70
2017-09-08T05:44:38.988Z,12.70
2017-09-08T05:47:05.278Z,12.70
2017-09-08T05:49:31.878Z,12.70
2017-09-08T05:51:58.424Z,12.80
2017-09-08T05:54:24.941Z,12.80
2017-09-08T05:56:51.496Z,12.80
2017-09-08T05:59:17.788Z,12.90
2017-09-08T06:01:44.145Z,12.90
2017-09-08T06:04:10.418Z,13.00
2017-09-08T06:06:36.819Z,13.00
2017-09-08T06:09:03.121Z,13.20
2017-09-08T06:11:29.484Z,13.20
2017-09-08T06:13:55.890Z,13.30
2017-09-08T06:16:22.253Z,13.30
2017-09-08T06:18:48.715Z,13.40
2017-09-08T06:21:14.990Z,13.40
2017-09-08T06:23:41.387Z,13.50
2017-09-08T06:26:07.872Z,13.50
2017-09-08T06:28:34.206Z,13.50
2017-09-08T06:31:00.585Z,13.50
2017-09-08T06:33:27.203Z,13.40
2017-09-08T06:35:53.506Z,13.40
2017-09-08T06:38:19.819Z,13.50
2017-09-08T06:40:46.896Z,13.90
2017-09-08T06:43:13.212Z,13.90
2017-09-08T06:45:39.645Z,14.10
2017-09-08T06:48:05.939Z,14.20
2017-09-08T06:50:32.922Z,14.20
2017-09-08T06:52:59.406Z,14.20
2017-09-08T06:55:25.815Z,14.20
2017-09-08T06:57:52.213Z,14.10
2017-09-08T07:00:18.648Z,14.00
2017-09-08T07:02:44.974Z,14.00
2017-09-08T07:05:11.386Z,14.10
2017-09-08T07:07:38.553Z,14.10
2017-09-08T07:10:04.948Z,14.00
2017-09-08T07:12:31.427Z,14.10
2017-09-08T07:14:57.839Z,14.20
2017-09-08T07:17:24.216Z,14.30
2017-09-08T07:19:50.568Z,14.30
2017-09-08T07:22:16.934Z,14.40
2017-09-08T07:24:43.425Z,14.50
2017-09-08T07:27:09.786Z,14.50
2017-09-08T07:29:36.126Z,14.50
2017-09-08T07:32:02.489Z,14.50
2017-09-08T07:34:29.564Z,14.40
2017-09-08T07:36:55.900Z,14.40
2017-09-08T07:39:22.258Z,14.40
2017-09-08T07:41:48.614Z,14.30
2017-09-08T07:44:14.939Z,14.30
2017-09-08T07:46:41.301Z,14.40
2017-09-08T07:49:07.645Z,14.40
2017-09-08T07:51:33.941Z,14.50
2017-09-08T07:54:00.446Z,14.60
2017-09-08T07:56:26.710Z,14.60
2017-09-08T07:58:52.979Z,14.70
2017-09-08T08:01:19.409Z,14.80
2017-09-08T08:03:45.740Z,14.90
2017-09-08T08:06:12.373Z,15.00
2017-09-08T08:08:38.816Z,15.00
2017-09-08T08:11:05.258Z,14.90
2017-09-08T08:13:31.537Z,15.20
2017-09-08T08:15:57.835Z,15.40
2017-09-08T08:18:25.265Z,15.80
2017-09-08T08:20:51.495Z,16.30
2017-09-08T08:23:18.496Z,16.60
2017-09-08T08:25:45.085Z,16.60
2017-09-08T08:28:11.306Z,17.20
2017-09-08T08:30:37.702Z,17.50
2017-09-08T08:33:03.966Z,17.40
2017-09-08T08:35:30.368Z,17.10
2017-09-08T08:37:56.621Z,17.10
2017-09-08T08:40:23.306Z,17.60
2017-09-08T08:45:39.941Z,16.60
2017-09-08T08:48:06.298Z,16.40
2017-09-08T08:50:32.884Z,16.00
2017-09-08T08:52:59.298Z,15.90
2017-09-08T08:55:25.847Z,16.20
2017-09-08T08:57:52.185Z,16.60
2017-09-08T09:00:18.552Z,17.10
2017-09-08T09:02:44.785Z,17.10
2017-09-08T09:05:11.261Z,16.70
2017-09-08T09:07:42.793Z,16.10
2017-09-08T09:10:09.095Z,15.50
2017-09-08T09:12:35.297Z,15.30
2017-09-08T09:15:01.516Z,15.20
2017-09-08T09:17:27.892Z,15.20
2017-09-08T09:19:54.154Z,15.30
2017-09-08T09:22:20.458Z,15.10
2017-09-08T09:24:47.123Z,14.90
2017-09-08T09:27:13.488Z,14.80
2017-09-08T09:29:39.805Z,14.80
2017-09-08T09:32:06.185Z,14.80
2017-09-08T09:34:32.467Z,14.80
2017-09-08T09:36:58.735Z,14.90
2017-09-08T09:39:25.050Z,15.00
2017-09-08T09:41:51.270Z,15.00
2017-09-08T09:44:17.725Z,15.10
2017-09-08T09:46:43.960Z,15.20
2017-09-08T09:49:10.202Z,15.30
2017-09-08T09:51:36.631Z,15.50
2017-09-08T09:54:02.881Z,15.80
2017-09-08T09:56:29.143Z,16.00
2017-09-08T09:58:55.474Z,15.90
2017-09-08T10:01:21.716Z,16.00
2017-09-08T10:03:48.087Z,15.60
2017-09-08T10:06:14.529Z,15.40
2017-09-08T10:08:40.876Z,15.20
2017-09-08T10:11:07.222Z,15.30
2017-09-08T10:13:33.566Z,15.20
2017-09-08T10:15:59.943Z,15.50
2017-09-08T10:18:27.320Z,15.60
2017-09-08T10:20:53.630Z,15.60
2017-09-08T10:23:19.976Z,15.50
2017-09-08T10:25:46.361Z,15.40
2017-09-08T10:28:12.562Z,15.50
2017-09-08T10:30:38.847Z,15.60
2017-09-08T10:33:05.612Z,15.80
2017-09-08T10:35:31.953Z,15.90
2017-09-08T10:37:58.213Z,16.00
2017-09-08T10:40:24.758Z,16.00
2017-09-08T10:42:51.101Z,16.10
2017-09-08T10:45:21.010Z,16.10
2017-09-08T10:47:47.320Z,16.30
2017-09-08T10:50:13.693Z,16.60
2017-09-08T10:52:39.967Z,16.50
2017-09-08T10:55:06.537Z,16.40
2017-09-08T10:57:33.031Z,16.60
2017-09-08T11:00:00.108Z,16.80
2017-09-08T11:02:26.397Z,16.80
2017-09-08T11:04:52.609Z,16.60
2017-09-08T11:07:18.898Z,16.50
2017-09-08T11:09:45.176Z,16.20
2017-09-08T11:12:11.697Z,16.20
2017-09-08T11:14:38.179Z,16.30
2017-09-08T11:17:04.639Z,16.30
2017-09-08T11:19:30.965Z,16.20
2017-09-08T11:21:57.369Z,16.10
2017-09-08T11:24:24.656Z,16.10
2017-09-08T11:26:51.049Z,16.10
2017-09-08T11:29:17.864Z,16.10
2017-09-08T11:31:44.693Z,16.00
2017-09-08T11:34:16.946Z,15.80
2017-09-08T11:36:49.514Z,15.80
2017-09-08T11:39:15.934Z,15.80
2017-09-08T11:41:42.354Z,15.90
2017-09-08T11:44:08.986Z,15.90
2017-09-08T11:46:35.385Z,16.00
2017-09-08T11:49:01.673Z,16.10
2017-09-08T11:51:28.135Z,16.10
2017-09-08T11:53:54.495Z,16.00
2017-09-08T11:56:21.052Z,16.00
2017-09-08T11:58:47.395Z,15.90
2017-09-08T12:01:13.791Z,15.80
2017-09-08T12:03:40.084Z,15.70
2017-09-08T12:06:06.595Z,15.70
2017-09-08T12:08:32.925Z,15.70
2017-09-08T12:10:59.469Z,15.60
2017-09-08T12:13:26.004Z,15.50
2017-09-08T12:15:52.405Z,15.40
2017-09-08T12:18:19.506Z,15.40
2017-09-08T12:20:45.887Z,15.40
2017-09-08T12:23:12.290Z,15.50
2017-09-08T12:25:38.622Z,15.60
2017-09-08T12:28:04.889Z,15.80
2017-09-08T12:30:31.195Z,16.10
2017-09-08T12:32:58.229Z,16.10
2017-09-08T12:35:25.803Z,16.10
2017-09-08T12:37:52.127Z,16.30
2017-09-08T12:40:18.621Z,16.70
2017-09-08T12:42:44.929Z,16.60
2017-09-08T12:45:11.417Z,16.70
2017-09-08T12:47:37.931Z,16.50
2017-09-08T12:50:04.316Z,16.50
2017-09-08T12:52:30.561Z,16.70
2017-09-08T12:54:57.001Z,16.70
2017-09-08T12:57:23.412Z,16.80
2017-09-08T12:59:49.761Z,16.70
2017-09-08T13:02:16.103Z,16.60
2017-09-08T13:04:43.441Z,16.30
2017-09-08T13:07:09.940Z,16.30
2017-09-08T13:09:37.468Z,16.20
2017-09-08T13:12:03.694Z,16.20
2017-09-08T13:14:30.721Z,16.70
2017-09-08T13:16:57.410Z,16.60
2017-09-08T13:19:24.035Z,16.50
2017-09-08T13:21:50.429Z,16.50
2017-09-08T13:24:16.838Z,16.50
2017-09-08T13:26:43.218Z,16.30
2017-09-08T13:29:09.639Z,16.20
2017-09-08T13:31:36.091Z,16.10
2017-09-08T13:34:02.529Z,16.20
2017-09-08T13:36:28.907Z,16.20
2017-09-08T13:38:55.412Z,16.30
2017-09-08T13:41:21.657Z,16.40
2017-09-08T13:43:47.987Z,16.50
2017-09-08T13:46:14.448Z,16.70
2017-09-08T13:48:40.855Z,16.70
2017-09-08T13:51:07.201Z,16.80
2017-09-08T13:53:33.497Z,16.80
2017-09-08T13:56:00.283Z,16.70
2017-09-08T13:58:26.866Z,16.60
2017-09-08T14:00:53.335Z,16.50
2017-09-08T14:03:20.151Z,16.50
2017-09-08T14:05:46.573Z,16.60
2017-09-08T14:08:12.862Z,16.60
2017-09-08T14:10:39.416Z,16.70
2017-09-08T14:13:05.741Z,16.70
2017-09-08T14:15:33.081Z,16.80
2017-09-08T14:17:59.570Z,16.80
2017-09-08T14:20:25.894Z,16.50
2017-09-08T14:22:52.313Z,16.30
2017-09-08T14:25:18.693Z,16.20
2017-09-08T14:27:44.993Z,16.40
2017-09-08T14:30:11.414Z,16.40
2017-09-08T14:32:38.209Z,16.40
2017-09-08T14:35:04.730Z,16.40
2017-09-08T14:37:32.007Z,16.50
2017-09-08T14:39:58.516Z,16.50
2017-09-08T14:42:24.840Z,16.60
2017-09-08T14:44:51.251Z,16.60
2017-09-08T14:47:18.493Z,16.60
2017-09-08T14:49:45.597Z,16.50
2017-09-08T14:52:12.024Z,16.50
2017-09-08T14:54:38.362Z,16.50
2017-09-08T14:57:04.975Z,16.40
2017-09-08T14:59:31.287Z,16.20
2017-09-08T15:01:57.781Z,16.10
2017-09-08T15:04:24.102Z,16.00
2017-09-08T15:06:50.828Z,16.00
2017-09-08T15:09:17.206Z,16.10
2017-09-08T15:11:43.698Z,16.10
2017-09-08T15:14:10.317Z,16.00
2017-09-08T15:16:36.748Z,16.00
2017-09-08T15:19:03.045Z,16.10
2017-09-08T15:21:29.497Z,16.20
2017-09-08T15:23:55.797Z,16.10
2017-09-08T15:26:22.454Z,16.10
2017-09-08T15:28:48.884Z,16.20
2017-09-08T15:31:15.282Z,16.10
2017-09-08T15:33:41.682Z,16.10
2017-09-08T15:36:07.983Z,16.10
2017-09-08T15:38:34.405Z,16.10
2017-09-08T15:41:00.799Z,16.10
2017-09-08T15:43:27.237Z,16.00
2017-09-08T15:45:53.591Z,15.90
2017-09-08T15:48:19.908Z,15.80
2017-09-08T15:50:46.147Z,15.80
2017-09-08T15:53:12.434Z,15.70
2017-09-08T15:55:38.947Z,15.60
2017-09-08T15:58:05.276Z,15.60
2017-09-08T16:00:31.580Z,15.50
2017-09-08T16:02:57.897Z,15.50
2017-09-08T16:05:24.376Z,15.50
2017-09-08T16:07:50.822Z,15.40
2017-09-08T16:10:17.233Z,15.50
2017-09-08T16:12:44.301Z,15.50
2017-09-08T16:15:10.611Z,15.50
2017-09-08T16:17:36.964Z,15.40
2017-09-08T16:20:03.181Z,15.40
2017-09-08T16:22:29.514Z,15.40
2017-09-08T16:24:55.789Z,15.40
2017-09-08T16:27:22.145Z,15.30
2017-09-08T16:29:48.554Z,15.40
2017-09-08T16:32:15.098Z,15.30
2017-09-08T16:34:41.423Z,15.30
2017-09-08T16:37:07.780Z,15.30
2017-09-08T16:39:34.079Z,15.20
2017-09-08T16:42:00.356Z,15.20
2017-09-08T16:44:27.732Z,15.20
2017-09-08T16:46:54.161Z,15.20
2017-09-08T16:49:20.630Z,15.10
2017-09-08T16:51:46.889Z,15.10
2017-09-08T16:54:13.257Z,15.10
2017-09-08T16:56:39.545Z,15.10
2017-09-08T16:59:05.900Z,15.10
2017-09-08T17:01:32.247Z,15.10
2017-09-08T17:03:58.586Z,15.10
2017-09-08T17:06:25.608Z,15.00
2017-09-08T17:08:51.894Z,15.00
2017-09-08T17:11:18.289Z,15.00
2017-09-08T17:13:44.632Z,15.10
2017-09-08T17:16:11.089Z,15.10
2017-09-08T17:18:37.834Z,15.00
2017-09-08T17:21:04.146Z,15.00
2017-09-08T17:23:30.580Z,14.90
2017-09-08T17:25:57.736Z,14.90
2017-09-08T17:28:24.030Z,14.90
2017-09-08T17:30:50.361Z,14.80
2017-09-08T17:33:16.951Z,14.80
2017-09-08T17:35:43.330Z,14.80
2017-09-08T17:38:09.734Z,14.80
2017-09-08T17:40:36.124Z,14.70
2017-09-08T17:43:02.692Z,14.80
2017-09-08T17:45:29.076Z,14.80
2017-09-08T17:47:55.429Z,14.70
2017-09-08T17:50:21.895Z,14.70
2017-09-08T17:52:48.371Z,14.70
2017-09-08T17:55:15.622Z,14.60
2017-09-08T17:57:42.120Z,14.60
2017-09-08T18:00:08.546Z,14.50
2017-09-08T18:02:34.876Z,14.50
2017-09-08T18:05:01.244Z,14.50
2017-09-08T18:07:27.638Z,14.50
2017-09-08T18:09:53.928Z,14.50
2017-09-08T18:12:20.234Z,14.50
2017-09-08T18:14:46.734Z,14.40
2017-09-08T18:17:13.154Z,14.50
2017-09-08T18:19:39.556Z,14.50
2017-09-08T18:22:05.990Z,14.50
2017-09-08T18:24:32.414Z,14.50
2017-09-08T18:26:59.641Z,14.40
2017-09-08T18:29:26.634Z,14.30
2017-09-08T18:31:53.092Z,14.30
2017-09-08T18:34:19.565Z,14.30
2017-09-08T18:36:46.013Z,14.30
2017-09-08T18:39:13.392Z,14.40
2017-09-08T18:41:39.874Z,14.40
2017-09-08T18:44:06.356Z,14.50
2017-09-08T18:46:32.885Z,14.50
2017-09-08T18:48:59.251Z,14.60
2017-09-08T18:51:25.722Z,14.60
2017-09-08T18:53:52.761Z,14.60
2017-09-08T18:56:19.173Z,14.60
2017-09-08T18:58:45.541Z,14.60
2017-09-08T19:01:11.988Z,14.60
2017-09-08T19:03:38.491Z,14.60
2017-09-08T19:06:04.975Z,14.70
2017-09-08T19:08:31.395Z,14.60
2017-09-08T19:10:57.949Z,14.60
2017-09-08T19:13:24.411Z,14.60
2017-09-08T19:15:51.673Z,14.60
2017-09-08T19:18:19.329Z,14.70
2017-09-08T19:20:45.699Z,14.60
2017-09-08T19:23:12.089Z,14.60
2017-09-08T19:25:38.539Z,14.50
2017-09-08T19:28:05.636Z,14.50
2017-09-08T19:30:32.801Z,14.50
2017-09-08T19:32:59.881Z,14.40
2017-09-08T19:35:26.558Z,14.30
2017-09-08T19:37:53.046Z,14.20
2017-09-08T19:40:19.501Z,14.20
2017-09-08T19:42:46.073Z,14.10
2017-09-08T19:45:12.843Z,14.10
2017-09-08T19:47:39.427Z,14.00
2017-09-08T19:50:05.853Z,14.00
2017-09-08T19:52:32.378Z,14.00
2017-09-08T19:54:58.891Z,14.00
2017-09-08T19:57:25.372Z,14.00
2017-09-08T19:59:51.736Z,14.00
2017-09-08T20:02:18.206Z,14.10
2017-09-08T20:04:44.620Z,14.10
2017-09-08T20:07:11.019Z,14.00
2017-09-08T20:09:38.829Z,14.00
2017-09-08T20:12:05.181Z,14.00
2017-09-08T20:14:31.655Z,13.80
2017-09-08T20:16:58.092Z,13.70
2017-09-08T20:19:25.395Z,13.60
2017-09-08T20:21:52.529Z,13.60
2017-09-08T20:24:19.902Z,13.60
2017-09-08T20:26:46.711Z,13.60
2017-09-08T20:29:13.035Z,13.50
2017-09-08T20:31:39.371Z,13.50
2017-09-08T20:34:06.430Z,13.50
2017-09-08T20:36:32.875Z,13.60
2017-09-08T20:39:01.343Z,13.60
2017-09-08T20:41:27.709Z,13.50
2017-09-08T20:43:54.189Z,13.70
2017-09-08T20:46:21.604Z,13.70
2017-09-08T20:48:48.000Z,13.80
2017-09-08T20:51:14.440Z,13.80
2017-09-08T20:53:41.523Z,13.90
2017-09-08T20:56:07.851Z,13.90
2017-09-08T20:58:34.216Z,14.00
2017-09-08T21:01:00.674Z,14.00
2017-09-08T21:03:27.072Z,13.90
2017-09-08T21:05:53.426Z,13.90
2017-09-08T21:08:19.718Z,13.90
2017-09-08T21:10:46.104Z,13.90
2017-09-08T21:13:12.545Z,13.90
2017-09-08T21:15:38.822Z,13.80
2017-09-08T21:18:06.879Z,13.70
2017-09-08T21:20:33.230Z,13.70
2017-09-08T21:22:59.506Z,13.60
2017-09-08T21:25:25.888Z,13.60
2017-09-08T21:27:52.270Z,13.60
2017-09-08T21:30:18.574Z,13.60
2017-09-08T21:32:44.953Z,13.60
2017-09-08T21:35:11.331Z,13.70
2017-09-08T21:37:37.802Z,13.60
2017-09-08T21:40:04.182Z,13.60
2017-09-08T21:42:30.560Z,13.70
2017-09-08T21:44:56.979Z,13.80
2017-09-08T21:47:23.450Z,13.80
2017-09-08T21:49:49.809Z,13.80
2017-09-08T21:52:16.275Z,13.90
2017-09-08T21:54:42.661Z,13.80
2017-09-08T21:57:09.063Z,13.80
2017-09-08T21:59:35.634Z,13.80
2017-09-08T22:02:01.972Z,13.80
2017-09-08T22:04:28.257Z,13.90
2017-09-08T22:06:54.703Z,14.00
2017-09-08T22:09:21.079Z,14.10
2017-09-08T22:11:47.414Z,14.10
2017-09-08T22:14:13.871Z,14.00
2017-09-08T22:16:40.225Z,14.00
2017-09-08T22:19:06.741Z,14.00
2017-09-08T22:21:33.011Z,14.00
2017-09-08T22:23:59.350Z,14.00
2017-09-08T22:26:25.625Z,14.00
2017-09-08T22:28:51.876Z,13.90
2017-09-08T22:31:18.136Z,13.80
2017-09-08T22:33:45.260Z,13.80
2017-09-08T22:36:11.627Z,13.80
2017-09-08T22:38:37.951Z,13.70
2017-09-08T22:41:04.329Z,13.70
2017-09-08T22:43:30.661Z,13.70
2017-09-08T22:45:57.037Z,13.70
2017-09-08T22:48:23.306Z,13.80
2017-09-08T22:50:49.658Z,13.80
2017-09-08T22:53:16.101Z,13.90
2017-09-08T22:55:42.455Z,13.90
2017-09-08T22:58:09.198Z,14.00
2017-09-08T23:00:36.032Z,14.00
2017-09-08T23:03:02.300Z,14.00
2017-09-08T23:05:28.653Z,14.00
2017-09-08T23:07:54.979Z,14.00
2017-09-08T23:10:21.431Z,14.00
2017-09-08T23:12:47.771Z,14.00
2017-09-08T23:15:14.165Z,14.00
2017-09-08T23:17:40.627Z,14.00
2017-09-08T23:20:06.898Z,14.00
2017-09-08T23:22:33.138Z,14.00
2017-09-08T23:24:59.449Z,13.90
2017-09-08T23:27:25.867Z,14.00
2017-09-08T23:29:52.121Z,14.00
2017-09-08T23:32:18.407Z,13.90
2017-09-08T23:34:44.727Z,13.90
2017-09-08T23:37:11.127Z,13.90
2017-09-08T23:39:37.372Z,13.90
2017-09-08T23:42:03.749Z,14.00
2017-09-08T23:44:29.995Z,14.00
2017-09-08T23:46:56.300Z,14.10
2017-09-08T23:49:22.668Z,14.20
2017-09-08T23:51:48.945Z,14.20
2017-09-08T23:54:15.252Z,14.20
2017-09-08T23:56:41.507Z,14.10
2017-09-08T23:59:07.805Z,14.10
